createdAt,value
2019-05-29T00:00:43.419Z,1.70
2019-05-29T00:03:10.473Z,1.87
2019-05-29T00:05:37.214Z,1.87
2019-05-29T00:08:03.949Z,1.80
2019-05-29T00:10:30.339Z,1.50
2019-05-29T00:12:56.673Z,1.57
2019-05-29T00:15:23.064Z,2.07
2019-05-29T00:17:49.678Z,1.80
2019-05-29T00:20:16.071Z,1.80
2019-05-29T00:22:42.514Z,1.90
2019-05-29T00:25:10.592Z,2.00
2019-05-29T00:27:37.070Z,1.60
2019-05-29T00:30:07.286Z,2.00
2019-05-29T00:32:33.611Z,1.90
2019-05-29T00:34:59.919Z,1.80
2019-05-29T00:37:26.412Z,1.90
2019-05-29T00:39:52.888Z,1.80
2019-05-29T00:42:19.250Z,1.80
2019-05-29T00:44:45.738Z,1.63
2019-05-29T00:47:12.038Z,1.93
2019-05-29T00:49:38.583Z,1.77
2019-05-29T00:52:05.213Z,2.20
2019-05-29T00:54:31.657Z,2.20
2019-05-29T00:56:58.244Z,1.73
2019-05-29T00:59:24.724Z,1.70
2019-05-29T01:01:51.120Z,1.70
2019-05-29T01:04:17.931Z,1.47
2019-05-29T01:06:44.533Z,1.50
2019-05-29T01:09:10.941Z,1.60
2019-05-29T01:11:37.536Z,1.50
2019-05-29T01:14:04.155Z,1.90
2019-05-29T01:16:30.685Z,1.57
2019-05-29T01:18:58.967Z,1.60
2019-05-29T01:21:25.593Z,1.63
2019-05-29T01:23:51.991Z,1.60
2019-05-29T01:26:18.657Z,1.40
2019-05-29T01:28:45.319Z,1.50
2019-05-29T01:31:11.744Z,1.40
2019-05-29T01:33:38.007Z,1.60
2019-05-29T01:36:04.523Z,1.63
2019-05-29T01:38:30.999Z,1.77
2019-05-29T01:40:57.415Z,1.50
2019-05-29T01:43:24.022Z,1.50
2019-05-29T01:45:50.587Z,1.70
2019-05-29T01:48:17.380Z,1.90
2019-05-29T01:50:43.831Z,1.70
2019-05-29T01:53:10.322Z,1.50
2019-05-29T01:55:36.618Z,1.80
2019-05-29T01:58:03.527Z,1.60
2019-05-29T02:00:29.956Z,1.70
2019-05-29T02:02:56.230Z,2.13
2019-05-29T02:05:24.014Z,1.60
2019-05-29T02:07:50.741Z,1.80
2019-05-29T02:10:18.258Z,1.67
2019-05-29T02:12:45.086Z,1.80
2019-05-29T02:15:24.895Z,1.67
2019-05-29T02:17:40.398Z,1.60
2019-05-29T02:20:07.785Z,1.60
2019-05-29T02:22:34.285Z,2.00
2019-05-29T02:25:00.771Z,1.70
2019-05-29T02:27:27.750Z,2.00
2019-05-29T02:29:54.094Z,1.90
2019-05-29T02:32:21.387Z,1.90
2019-05-29T02:34:47.975Z,1.63
2019-05-29T02:37:14.407Z,1.90
2019-05-29T02:39:40.873Z,1.63
2019-05-29T02:42:07.421Z,1.80
2019-05-29T02:44:33.814Z,1.80
2019-05-29T02:47:00.325Z,1.70
2019-05-29T02:49:28.148Z,1.77
2019-05-29T02:51:54.714Z,1.50
2019-05-29T02:54:22.515Z,1.60
2019-05-29T02:56:49.307Z,1.63
2019-05-29T02:59:16.060Z,1.63
2019-05-29T03:01:42.776Z,1.63
2019-05-29T03:04:09.411Z,1.60
2019-05-29T03:06:35.871Z,1.50
2019-05-29T03:09:05.186Z,1.70
2019-05-29T03:11:33.465Z,1.90
2019-05-29T03:14:00.134Z,1.63
2019-05-29T03:16:28.165Z,1.90
2019-05-29T03:18:54.835Z,1.90
2019-05-29T03:21:21.234Z,1.90
2019-05-29T03:23:47.538Z,2.13
2019-05-29T03:26:14.041Z,2.17
2019-05-29T03:28:40.334Z,1.87
2019-05-29T03:31:06.909Z,2.00
2019-05-29T03:33:41.007Z,1.90
2019-05-29T03:36:01.972Z,1.63
2019-05-29T03:38:30.159Z,2.00
2019-05-29T03:40:56.736Z,2.13
2019-05-29T03:43:23.232Z,1.77
2019-05-29T03:45:49.534Z,1.70
2019-05-29T03:48:15.961Z,2.20
2019-05-29T03:50:42.304Z,1.73
2019-05-29T03:53:08.896Z,1.90
2019-05-29T03:55:36.030Z,1.80
2019-05-29T03:58:03.758Z,2.17
2019-05-29T04:00:37.017Z,1.90
2019-05-29T04:02:58.380Z,2.00
2019-05-29T04:05:24.995Z,2.33
2019-05-29T04:07:51.809Z,2.30
2019-05-29T04:10:29.523Z,2.30
2019-05-29T04:12:58.592Z,2.30
2019-05-29T04:15:24.976Z,2.20
2019-05-29T04:17:51.844Z,2.00
2019-05-29T04:20:18.270Z,2.30
2019-05-29T04:22:44.771Z,2.03
2019-05-29T04:25:13.180Z,2.43
2019-05-29T04:27:40.755Z,1.97
2019-05-29T04:30:07.632Z,2.23
2019-05-29T04:32:34.369Z,2.17
2019-05-29T04:35:00.865Z,2.60
2019-05-29T04:37:28.391Z,2.70
2019-05-29T04:39:54.966Z,2.43
2019-05-29T04:42:21.255Z,2.50
2019-05-29T04:44:47.677Z,2.80
2019-05-29T04:47:14.250Z,3.20
2019-05-29T04:49:40.687Z,3.53
2019-05-29T04:52:07.202Z,3.77
2019-05-29T04:54:35.224Z,3.13
2019-05-29T04:57:01.819Z,3.43
2019-05-29T04:59:28.820Z,4.00
2019-05-29T05:01:55.317Z,4.17
2019-05-29T05:04:21.820Z,4.90
2019-05-29T05:06:48.151Z,4.77
2019-05-29T05:09:14.560Z,4.40
2019-05-29T05:11:41.234Z,4.03
2019-05-29T05:14:07.794Z,4.50
2019-05-29T05:16:34.344Z,4.27
2019-05-29T05:19:00.747Z,3.80
2019-05-29T05:21:27.069Z,4.03
2019-05-29T05:23:53.365Z,3.77
2019-05-29T05:26:19.893Z,3.90
2019-05-29T05:28:46.989Z,3.70
2019-05-29T05:31:13.795Z,3.70
2019-05-29T05:33:40.996Z,4.33
2019-05-29T05:36:07.731Z,3.53
2019-05-29T05:38:34.697Z,3.70
2019-05-29T05:41:01.162Z,4.17
2019-05-29T05:43:27.681Z,3.57
2019-05-29T05:45:54.093Z,4.30
2019-05-29T05:48:20.437Z,4.00
2019-05-29T05:50:46.892Z,3.50
2019-05-29T05:53:13.385Z,3.90
2019-05-29T05:55:39.879Z,4.00
2019-05-29T05:58:06.475Z,3.87
2019-05-29T06:00:35.811Z,3.73
2019-05-29T06:03:03.033Z,3.77
2019-05-29T06:05:29.627Z,3.77
2019-05-29T06:07:56.286Z,3.57
2019-05-29T06:10:22.876Z,3.57
2019-05-29T06:12:49.536Z,3.70
2019-05-29T06:15:16.140Z,3.50
2019-05-29T06:18:00.594Z,3.53
2019-05-29T06:20:11.546Z,3.57
2019-05-29T06:22:39.127Z,3.40
2019-05-29T06:25:06.200Z,4.53
2019-05-29T06:27:33.480Z,3.80
2019-05-29T06:30:00.359Z,3.70
2019-05-29T06:32:27.025Z,4.10
2019-05-29T06:34:53.345Z,4.30
2019-05-29T06:37:19.816Z,4.80
2019-05-29T06:39:46.432Z,5.23
2019-05-29T06:42:13.016Z,4.87
2019-05-29T06:44:41.357Z,5.20
2019-05-29T06:47:07.701Z,5.83
2019-05-29T06:49:34.165Z,5.00
2019-05-29T06:52:00.650Z,4.37
2019-05-29T06:54:27.165Z,4.10
2019-05-29T06:56:53.685Z,4.17
2019-05-29T06:59:20.076Z,3.87
2019-05-29T07:01:47.667Z,2.70
2019-05-29T07:04:14.303Z,3.70
2019-05-29T07:06:40.793Z,4.63
2019-05-29T07:09:07.387Z,3.27
2019-05-29T07:11:33.843Z,2.43
2019-05-29T07:14:00.211Z,2.40
2019-05-29T07:16:43.120Z,2.50
2019-05-29T07:19:24.023Z,2.83
2019-05-29T07:21:23.576Z,3.50
2019-05-29T07:23:50.002Z,3.00
2019-05-29T07:26:16.724Z,2.60
2019-05-29T07:29:02.051Z,2.27
2019-05-29T07:31:11.312Z,2.43
2019-05-29T07:33:38.934Z,2.43
2019-05-29T07:36:05.426Z,2.13
2019-05-29T07:38:32.067Z,2.40
2019-05-29T07:40:58.755Z,2.60
2019-05-29T07:43:25.291Z,2.47
2019-05-29T07:45:52.040Z,2.60
2019-05-29T07:48:18.446Z,2.80
2019-05-29T07:50:44.933Z,3.00
2019-05-29T07:53:11.853Z,2.90
2019-05-29T07:55:38.495Z,3.10
2019-05-29T07:58:05.197Z,3.77
2019-05-29T08:00:35.832Z,3.57
2019-05-29T08:03:20.006Z,3.80
2019-05-29T08:05:51.083Z,2.57
2019-05-29T08:08:14.930Z,3.23
2019-05-29T08:10:41.797Z,3.20
2019-05-29T08:13:08.602Z,3.20
2019-05-29T08:15:49.152Z,3.03
2019-05-29T08:18:03.679Z,3.00
2019-05-29T08:20:30.199Z,2.80
2019-05-29T08:22:56.809Z,3.00
2019-05-29T08:25:23.399Z,2.63
2019-05-29T08:27:50.804Z,2.80
2019-05-29T08:30:18.023Z,2.43
2019-05-29T08:32:45.334Z,2.07
2019-05-29T08:35:12.523Z,2.50
2019-05-29T08:37:39.166Z,2.93
2019-05-29T08:40:06.680Z,2.90
2019-05-29T08:42:33.118Z,2.40
2019-05-29T08:44:59.588Z,2.20
2019-05-29T08:47:26.122Z,1.97
2019-05-29T08:49:54.470Z,1.97
2019-05-29T08:52:21.286Z,2.07
2019-05-29T08:54:48.108Z,1.93
2019-05-29T08:57:14.708Z,1.90
2019-05-29T08:59:42.131Z,1.93
2019-05-29T09:02:09.070Z,1.93
2019-05-29T09:04:35.482Z,1.50
2019-05-29T09:07:01.980Z,2.10
2019-05-29T09:09:28.395Z,2.17
2019-05-29T09:11:55.088Z,1.73
2019-05-29T09:14:21.611Z,1.47
2019-05-29T09:16:47.900Z,1.47
2019-05-29T09:19:14.433Z,1.20
2019-05-29T09:21:40.944Z,1.80
2019-05-29T09:24:07.393Z,1.70
2019-05-29T09:26:33.940Z,2.10
2019-05-29T09:29:00.602Z,1.80
2019-05-29T09:31:27.023Z,1.93
2019-05-29T09:33:53.440Z,2.10
2019-05-29T09:36:20.670Z,1.90
2019-05-29T09:38:47.359Z,1.90
2019-05-29T09:41:15.637Z,2.20
2019-05-29T09:43:57.686Z,1.40
2019-05-29T09:46:11.959Z,1.60
2019-05-29T09:48:49.363Z,2.40
2019-05-29T09:51:20.678Z,1.60
2019-05-29T09:53:35.539Z,1.57
2019-05-29T09:56:03.005Z,1.70
2019-05-29T09:58:29.679Z,1.70
2019-05-29T10:01:15.957Z,1.70
2019-05-29T10:03:24.512Z,1.60
2019-05-29T10:05:50.997Z,1.87
2019-05-29T10:08:17.609Z,1.93
2019-05-29T10:10:44.409Z,1.70
2019-05-29T10:13:11.018Z,1.77
2019-05-29T10:15:37.660Z,1.60
2019-05-29T10:18:08.519Z,1.23
2019-05-29T10:20:32.641Z,1.10
2019-05-29T10:22:59.084Z,1.10
2019-05-29T10:25:25.772Z,0.93
2019-05-29T10:27:52.916Z,1.50
2019-05-29T10:30:19.909Z,1.20
2019-05-29T10:32:46.400Z,1.00
2019-05-29T10:35:13.386Z,1.10
2019-05-29T10:37:40.007Z,0.97
2019-05-29T10:40:09.625Z,1.10
2019-05-29T10:42:36.339Z,0.77
2019-05-29T10:45:08.362Z,1.10
2019-05-29T10:47:34.873Z,1.33
2019-05-29T10:50:01.503Z,1.30
2019-05-29T10:52:28.012Z,1.30
2019-05-29T10:54:54.492Z,1.73
2019-05-29T10:57:21.022Z,1.10
2019-05-29T10:59:48.401Z,1.50
2019-05-29T11:02:15.235Z,1.40
2019-05-29T11:04:41.584Z,1.60
2019-05-29T11:07:08.107Z,1.57
2019-05-29T11:09:44.156Z,1.30
2019-05-29T11:12:03.773Z,1.47
2019-05-29T11:14:30.267Z,2.50
2019-05-29T11:16:57.577Z,1.87
2019-05-29T11:19:26.180Z,1.83
2019-05-29T11:21:54.277Z,1.60
2019-05-29T11:24:21.286Z,1.30
2019-05-29T11:26:48.360Z,1.60
2019-05-29T11:29:15.087Z,1.43
2019-05-29T11:31:41.681Z,1.50
2019-05-29T11:34:08.208Z,1.80
2019-05-29T11:36:34.894Z,1.47
2019-05-29T11:39:05.992Z,1.50
2019-05-29T11:41:29.851Z,1.33
2019-05-29T11:43:56.870Z,1.30
2019-05-29T11:46:23.644Z,2.03
2019-05-29T11:48:51.132Z,1.50
2019-05-29T11:51:17.731Z,1.47
2019-05-29T11:53:44.218Z,1.60
2019-05-29T11:56:10.821Z,1.73
2019-05-29T11:58:37.469Z,1.70
2019-05-29T12:01:04.259Z,1.60
2019-05-29T12:03:30.805Z,3.93
2019-05-29T12:05:57.617Z,3.77
2019-05-29T12:08:24.383Z,2.33
2019-05-29T12:10:51.251Z,3.17
2019-05-29T12:13:18.173Z,2.00
2019-05-29T12:15:44.682Z,1.90
2019-05-29T12:18:23.512Z,2.30
2019-05-29T12:20:40.402Z,2.20
2019-05-29T12:23:22.816Z,1.70
2019-05-29T12:25:35.609Z,1.80
2019-05-29T12:28:03.462Z,1.70
2019-05-29T12:30:30.855Z,1.93
2019-05-29T12:32:57.543Z,2.13
2019-05-29T12:35:24.282Z,1.80
2019-05-29T12:37:50.600Z,2.10
2019-05-29T12:40:17.746Z,1.80
2019-05-29T12:42:45.163Z,0.90
2019-05-29T12:45:14.213Z,1.70
2019-05-29T12:47:40.640Z,1.80
2019-05-29T12:50:11.955Z,1.57
2019-05-29T12:52:38.898Z,1.50
2019-05-29T12:55:07.253Z,1.60
2019-05-29T12:57:33.775Z,1.63
2019-05-29T13:00:00.452Z,1.90
2019-05-29T13:02:27.143Z,1.80
2019-05-29T13:05:18.399Z,1.53
2019-05-29T13:07:21.808Z,2.07
2019-05-29T13:09:48.394Z,1.80
2019-05-29T13:12:14.691Z,1.80
2019-05-29T13:14:41.133Z,1.77
2019-05-29T13:17:07.803Z,1.50
2019-05-29T13:19:34.515Z,2.40
2019-05-29T13:22:01.639Z,1.70
2019-05-29T13:24:28.353Z,1.77
2019-05-29T13:26:55.457Z,1.73
2019-05-29T13:29:22.150Z,3.00
2019-05-29T13:31:48.674Z,2.00
2019-05-29T13:34:15.455Z,1.80
2019-05-29T13:36:42.034Z,1.50
2019-05-29T13:39:08.766Z,1.50
2019-05-29T13:41:35.267Z,1.70
2019-05-29T13:44:02.720Z,1.40
2019-05-29T13:46:29.463Z,1.60
2019-05-29T13:48:56.733Z,1.40
2019-05-29T13:51:23.497Z,1.70
2019-05-29T13:54:02.712Z,1.50
2019-05-29T13:56:18.370Z,1.67
2019-05-29T13:58:44.886Z,1.50
2019-05-29T14:01:11.514Z,1.63
2019-05-29T14:03:38.248Z,1.27
2019-05-29T14:06:05.883Z,1.30
2019-05-29T14:08:33.503Z,1.30
2019-05-29T14:11:00.872Z,1.40
2019-05-29T14:13:27.504Z,1.30
2019-05-29T14:15:54.228Z,1.50
2019-05-29T14:18:20.664Z,1.53
2019-05-29T14:20:47.193Z,1.80
2019-05-29T14:23:13.944Z,1.60
2019-05-29T14:25:40.780Z,1.50
2019-05-29T14:28:08.672Z,1.40
2019-05-29T14:30:35.762Z,1.30
2019-05-29T14:33:04.244Z,1.40
2019-05-29T14:35:30.771Z,1.57
2019-05-29T14:37:57.177Z,1.13
2019-05-29T14:40:23.658Z,1.70
2019-05-29T14:42:50.237Z,1.10
2019-05-29T14:45:17.167Z,1.23
2019-05-29T14:47:43.825Z,1.20
2019-05-29T14:50:13.910Z,1.27
2019-05-29T14:52:40.688Z,1.40
2019-05-29T14:55:08.991Z,1.30
2019-05-29T14:57:36.928Z,1.70
2019-05-29T15:00:22.323Z,1.23
2019-05-29T15:02:38.190Z,1.30
2019-05-29T15:05:06.049Z,1.40
2019-05-29T15:07:32.722Z,1.20
2019-05-29T15:09:59.266Z,1.50
2019-05-29T15:12:25.976Z,1.33
2019-05-29T15:14:52.628Z,1.50
2019-05-29T15:17:19.119Z,1.30
2019-05-29T15:19:45.666Z,1.00
2019-05-29T15:22:14.105Z,1.37
2019-05-29T15:24:58.863Z,1.30
2019-05-29T15:27:09.853Z,1.20
2019-05-29T15:29:36.749Z,1.37
2019-05-29T15:32:03.418Z,1.20
2019-05-29T15:34:29.894Z,1.40
2019-05-29T15:36:56.488Z,1.83
2019-05-29T15:39:23.216Z,1.43
2019-05-29T15:41:49.722Z,1.50
2019-05-29T15:44:17.232Z,1.37
2019-05-29T15:46:43.980Z,1.30
2019-05-29T15:49:11.135Z,1.40
2019-05-29T15:51:38.134Z,1.77
2019-05-29T15:54:04.807Z,1.77
2019-05-29T15:56:31.500Z,1.70
2019-05-29T15:58:58.041Z,1.67
2019-05-29T16:01:24.633Z,1.60
2019-05-29T16:03:51.277Z,1.30
2019-05-29T16:06:18.051Z,1.50
2019-05-29T16:08:44.371Z,1.50
2019-05-29T16:11:12.518Z,1.20
2019-05-29T16:13:39.501Z,1.30
2019-05-29T16:16:06.362Z,1.40
2019-05-29T16:18:32.816Z,1.23
2019-05-29T16:20:59.575Z,1.40
2019-05-29T16:23:34.693Z,1.50
2019-05-29T16:25:54.643Z,1.50
2019-05-29T16:28:21.535Z,1.70
2019-05-29T16:30:48.247Z,2.07
2019-05-29T16:33:15.096Z,1.90
2019-05-29T16:35:42.080Z,1.83
2019-05-29T16:38:08.752Z,1.30
2019-05-29T16:40:35.345Z,1.47
2019-05-29T16:43:02.035Z,1.60
2019-05-29T16:45:28.690Z,1.53
2019-05-29T16:47:55.223Z,1.60
2019-05-29T16:50:22.884Z,1.43
2019-05-29T16:52:49.338Z,1.40
2019-05-29T16:55:17.215Z,1.30
2019-05-29T16:57:44.281Z,1.10
2019-05-29T17:00:13.615Z,1.13
2019-05-29T17:02:40.733Z,1.30
2019-05-29T17:05:08.182Z,1.20
2019-05-29T17:07:37.540Z,1.27
2019-05-29T17:10:06.854Z,1.10
2019-05-29T17:12:33.312Z,1.10
2019-05-29T17:14:59.817Z,1.10
2019-05-29T17:17:26.370Z,1.10
2019-05-29T17:19:53.006Z,1.10
2019-05-29T17:22:20.858Z,1.00
2019-05-29T17:24:47.487Z,0.93
2019-05-29T17:27:14.564Z,1.40
2019-05-29T17:29:41.147Z,1.20
2019-05-29T17:32:07.805Z,1.00
2019-05-29T17:34:34.318Z,1.00
2019-05-29T17:37:00.869Z,1.47
2019-05-29T17:39:27.304Z,1.23
2019-05-29T17:41:53.958Z,1.30
2019-05-29T17:44:21.414Z,1.20
2019-05-29T17:46:48.161Z,1.07
2019-05-29T17:49:15.676Z,0.97
2019-05-29T17:51:42.618Z,1.07
2019-05-29T17:54:09.399Z,1.07
2019-05-29T17:56:37.056Z,1.30
2019-05-29T17:59:03.850Z,0.90
2019-05-29T18:01:31.015Z,1.17
2019-05-29T18:03:57.845Z,1.07
2019-05-29T18:06:24.621Z,1.20
2019-05-29T18:08:51.555Z,1.00
2019-05-29T18:11:18.841Z,1.23
2019-05-29T18:13:45.855Z,1.20
2019-05-29T18:16:12.298Z,1.10
2019-05-29T18:18:38.995Z,1.60
2019-05-29T18:21:05.622Z,1.37
2019-05-29T18:23:32.310Z,1.33
2019-05-29T18:25:59.115Z,1.30
2019-05-29T18:28:26.137Z,1.30
2019-05-29T18:30:53.069Z,1.10
2019-05-29T18:33:20.464Z,1.40
2019-05-29T18:35:47.225Z,1.20
2019-05-29T18:38:13.713Z,1.67
2019-05-29T18:40:40.408Z,1.20
2019-05-29T18:43:07.055Z,1.47
2019-05-29T18:45:33.986Z,1.40
2019-05-29T18:48:00.595Z,1.27
2019-05-29T18:50:27.620Z,1.30
2019-05-29T18:52:54.399Z,1.20
2019-05-29T18:55:21.268Z,1.27
2019-05-29T18:57:48.040Z,1.20
2019-05-29T19:00:15.624Z,1.10
2019-05-29T19:02:42.514Z,1.17
2019-05-29T19:05:10.363Z,1.40
2019-05-29T19:07:37.147Z,1.00
2019-05-29T19:10:06.883Z,1.40
2019-05-29T19:12:35.716Z,1.27
2019-05-29T19:15:05.539Z,1.33
2019-05-29T19:17:32.328Z,1.27
2019-05-29T19:19:58.989Z,1.33
2019-05-29T19:22:26.332Z,1.23
2019-05-29T19:24:53.398Z,1.30
2019-05-29T19:27:31.108Z,1.20
2019-05-29T19:29:48.449Z,1.00
2019-05-29T19:32:15.093Z,1.20
2019-05-29T19:34:41.787Z,1.27
2019-05-29T19:37:08.463Z,1.40
2019-05-29T19:39:35.065Z,1.33
2019-05-29T19:42:01.858Z,1.53
2019-05-29T19:44:28.575Z,1.60
2019-05-29T19:46:55.513Z,1.20
2019-05-29T19:49:22.090Z,1.27
2019-05-29T19:51:48.836Z,1.40
2019-05-29T19:54:15.576Z,1.40
2019-05-29T19:56:42.318Z,1.40
2019-05-29T19:59:08.913Z,1.33
2019-05-29T20:01:40.197Z,1.87
2019-05-29T20:04:04.500Z,1.57
2019-05-29T20:06:31.263Z,1.60
2019-05-29T20:08:57.866Z,1.50
2019-05-29T20:11:24.458Z,1.20
2019-05-29T20:13:51.178Z,1.30
2019-05-29T20:16:17.770Z,1.23
2019-05-29T20:18:44.250Z,1.10
2019-05-29T20:21:10.963Z,1.33
2019-05-29T20:23:38.579Z,1.47
2019-05-29T20:26:05.935Z,1.47
2019-05-29T20:28:32.565Z,1.37
2019-05-29T20:30:59.210Z,1.62
2019-05-29T20:33:25.764Z,1.50
2019-05-29T20:35:52.548Z,1.30
2019-05-29T20:38:19.738Z,1.40
2019-05-29T20:40:46.529Z,1.30
2019-05-29T20:43:13.344Z,1.50
2019-05-29T20:45:40.129Z,1.30
2019-05-29T20:48:06.782Z,1.70
2019-05-29T20:50:33.446Z,1.77
2019-05-29T20:53:00.046Z,1.77
2019-05-29T20:55:26.676Z,1.87
2019-05-29T20:57:53.654Z,2.00
2019-05-29T21:00:21.694Z,1.60
2019-05-29T21:02:48.192Z,1.87
2019-05-29T21:05:15.953Z,2.00
2019-05-29T21:07:43.015Z,2.10
2019-05-29T21:10:11.621Z,2.43
2019-05-29T21:12:41.928Z,2.30
2019-05-29T21:15:07.174Z,2.10
2019-05-29T21:17:33.832Z,2.20
2019-05-29T21:20:00.520Z,2.30
2019-05-29T21:22:27.184Z,2.40
2019-05-29T21:25:01.004Z,2.50
2019-05-29T21:27:23.049Z,2.40
2019-05-29T21:29:49.494Z,2.67
2019-05-29T21:32:15.954Z,2.17
2019-05-29T21:34:42.515Z,2.10
2019-05-29T21:37:11.104Z,2.23
2019-05-29T21:39:38.307Z,2.33
2019-05-29T21:42:05.002Z,2.47
2019-05-29T21:44:31.734Z,2.20
2019-05-29T21:46:58.348Z,2.20
2019-05-29T21:49:25.087Z,2.47
2019-05-29T21:51:51.763Z,2.33
2019-05-29T21:54:18.537Z,2.40
2019-05-29T21:56:45.853Z,2.50
2019-05-29T21:59:12.569Z,2.50
2019-05-29T22:01:39.887Z,2.40
2019-05-29T22:04:06.785Z,2.20
2019-05-29T22:06:33.514Z,2.50
2019-05-29T22:09:00.190Z,2.10
2019-05-29T22:11:26.856Z,2.50
2019-05-29T22:13:54.412Z,2.33
2019-05-29T22:16:21.305Z,2.20
2019-05-29T22:18:48.009Z,2.17
2019-05-29T22:21:14.653Z,2.33
2019-05-29T22:23:41.341Z,2.30
2019-05-29T22:26:07.997Z,2.40
2019-05-29T22:28:34.609Z,2.00
2019-05-29T22:31:03.089Z,1.90
2019-05-29T22:33:29.504Z,2.50
2019-05-29T22:35:55.981Z,2.20
2019-05-29T22:38:22.332Z,2.70
2019-05-29T22:40:48.976Z,2.30
2019-05-29T22:43:15.501Z,2.23
2019-05-29T22:45:42.038Z,2.20
2019-05-29T22:48:08.683Z,2.53
2019-05-29T22:50:35.240Z,2.37
2019-05-29T22:53:02.106Z,3.20
2019-05-29T22:55:28.900Z,2.50
2019-05-29T22:57:55.974Z,2.70
2019-05-29T23:00:22.746Z,2.70
2019-05-29T23:02:49.505Z,2.83
2019-05-29T23:05:16.614Z,2.83
2019-05-29T23:07:43.222Z,2.27
2019-05-29T23:10:10.774Z,2.33
2019-05-29T23:12:37.383Z,2.50
2019-05-29T23:15:07.147Z,2.40
2019-05-29T23:17:33.739Z,2.60
2019-05-29T23:20:00.717Z,2.43
2019-05-29T23:22:27.472Z,2.30
2019-05-29T23:24:54.858Z,2.50
2019-05-29T23:27:21.436Z,2.93
2019-05-29T23:29:49.281Z,2.47
2019-05-29T23:32:16.051Z,2.80
2019-05-29T23:34:42.597Z,2.47
2019-05-29T23:37:09.070Z,2.80
2019-05-29T23:39:35.726Z,2.73
2019-05-29T23:42:03.527Z,2.80
2019-05-29T23:44:30.337Z,2.70
2019-05-29T23:46:57.541Z,2.80
2019-05-29T23:49:23.954Z,2.53
2019-05-29T23:51:50.544Z,2.57
2019-05-29T23:54:16.988Z,2.70
2019-05-29T23:56:43.483Z,2.43
2019-05-29T23:59:09.943Z,3.03
